sensor_id;sensor_type;location;lat;lon;timestamp;temperature;humidity
11583;DHT22;34299;50.820;4.548;2023-09-19T00:02:04;14.50;99.90
11583;DHT22;34299;50.820;4.548;2023-09-19T00:04:33;14.70;99.90
11583;DHT22;34299;50.820;4.548;2023-09-19T00:07:00;14.70;99.90
11583;DHT22;34299;50.820;4.548;2023-09-19T00:09:28;14.70;99.90
11583;DHT22;34299;50.820;4.548;2023-09-19T00:11:55;14.60;99.90
11583;DHT22;34299;50.820;4.548;2023-09-19T00:14:25;14.60;99.90
11583;DHT22;34299;50.820;4.548;2023-09-19T00:16:51;14.30;99.90
11583;DHT22;34299;50.820;4.548;2023-09-19T00:19:20;14.60;99.90
11583;DHT22;34299;50.820;4.548;2023-09-19T00:21:48;14.60;99.90
11583;DHT22;34299;50.820;4.548;2023-09-19T00:24:15;14.60;99.90
11583;DHT22;34299;50.820;4.548;2023-09-19T00:26:42;14.60;99.90
11583;DHT22;34299;50.820;4.548;2023-09-19T00:29:09;14.50;99.90
11583;DHT22;34299;50.820;4.548;2023-09-19T00:31:38;14.30;99.90
11583;DHT22;34299;50.820;4.548;2023-09-19T00:34:06;14.40;99.90
11583;DHT22;34299;50.820;4.548;2023-09-19T00:36:36;14.40;99.90
11583;DHT22;34299;50.820;4.548;2023-09-19T00:39:05;14.30;99.90
11583;DHT22;34299;50.820;4.548;2023-09-19T00:41:34;14.40;99.90
11583;DHT22;34299;50.820;4.548;2023-09-19T00:44:02;14.40;99.90
11583;DHT22;34299;50.820;4.548;2023-09-19T00:46:30;14.40;99.90
11583;DHT22;34299;50.820;4.548;2023-09-19T00:48:58;14.50;99.90
11583;DHT22;34299;50.820;4.548;2023-09-19T00:51:26;14.40;99.90
11583;DHT22;34299;50.820;4.548;2023-09-19T00:53:54;14.50;99.90
11583;DHT22;34299;50.820;4.548;2023-09-19T00:56:22;14.40;99.90
11583;DHT22;34299;50.820;4.548;2023-09-19T00:58:49;14.40;99.90
11583;DHT22;34299;50.820;4.548;2023-09-19T01:01:16;14.40;99.90
11583;DHT22;34299;50.820;4.548;2023-09-19T01:03:44;14.40;99.90
11583;DHT22;34299;50.820;4.548;2023-09-19T01:06:11;14.40;99.90
11583;DHT22;34299;50.820;4.548;2023-09-19T01:08:38;14.40;99.90
11583;DHT22;34299;50.820;4.548;2023-09-19T01:11:17;14.30;99.90
11583;DHT22;34299;50.820;4.548;2023-09-19T01:13:56;14.20;99.90
11583;DHT22;34299;50.820;4.548;2023-09-19T01:16:32;14.30;99.90
11583;DHT22;34299;50.820;4.548;2023-09-19T01:19:07;14.30;99.90
11583;DHT22;34299;50.820;4.548;2023-09-19T01:21:49;14.20;99.90
11583;DHT22;34299;50.820;4.548;2023-09-19T01:24:50;14.20;99.90
11583;DHT22;34299;50.820;4.548;2023-09-19T01:27:39;14.10;99.90
11583;DHT22;34299;50.820;4.548;2023-09-19T01:30:17;14.10;99.90
11583;DHT22;34299;50.820;4.548;2023-09-19T01:32:45;14.20;99.90
11583;DHT22;34299;50.820;4.548;2023-09-19T01:35:12;14.00;99.90
11583;DHT22;34299;50.820;4.548;2023-09-19T01:37:42;13.90;99.90
11583;DHT22;34299;50.820;4.548;2023-09-19T01:40:11;13.90;99.90
11583;DHT22;34299;50.820;4.548;2023-09-19T01:42:48;13.80;99.90
11583;DHT22;34299;50.820;4.548;2023-09-19T01:45:22;13.80;99.90
11583;DHT22;34299;50.820;4.548;2023-09-19T01:47:52;13.80;99.90
11583;DHT22;34299;50.820;4.548;2023-09-19T01:50:29;13.70;99.90
11583;DHT22;34299;50.820;4.548;2023-09-19T01:53:02;13.60;99.90
11583;DHT22;34299;50.820;4.548;2023-09-19T01:55:33;13.70;99.90
11583;DHT22;34299;50.820;4.548;2023-09-19T01:58:07;13.70;99.90
11583;DHT22;34299;50.820;4.548;2023-09-19T02:00:37;13.70;99.90
11583;DHT22;34299;50.820;4.548;2023-09-19T02:03:08;13.70;99.90
11583;DHT22;34299;50.820;4.548;2023-09-19T02:05:36;13.70;99.90
11583;DHT22;34299;50.820;4.548;2023-09-19T02:08:03;13.60;99.90
11583;DHT22;34299;50.820;4.548;2023-09-19T02:10:30;13.60;99.90
11583;DHT22;34299;50.820;4.548;2023-09-19T02:12:57;13.70;99.90
11583;DHT22;34299;50.820;4.548;2023-09-19T02:15:24;13.80;99.90
11583;DHT22;34299;50.820;4.548;2023-09-19T02:17:52;13.60;99.90
11583;DHT22;34299;50.820;4.548;2023-09-19T02:20:22;13.70;99.90
11583;DHT22;34299;50.820;4.548;2023-09-19T02:22:49;13.70;99.90
11583;DHT22;34299;50.820;4.548;2023-09-19T02:25:17;13.70;99.90
11583;DHT22;34299;50.820;4.548;2023-09-19T02:27:45;13.50;99.90
11583;DHT22;34299;50.820;4.548;2023-09-19T02:30:13;13.60;99.90
11583;DHT22;34299;50.820;4.548;2023-09-19T02:32:41;13.60;99.90
11583;DHT22;34299;50.820;4.548;2023-09-19T02:35:10;13.70;99.90
11583;DHT22;34299;50.820;4.548;2023-09-19T02:37:38;13.70;99.90
11583;DHT22;34299;50.820;4.548;2023-09-19T02:40:06;13.70;99.90
11583;DHT22;34299;50.820;4.548;2023-09-19T02:42:44;13.80;99.90
11583;DHT22;34299;50.820;4.548;2023-09-19T02:45:14;13.80;99.90
11583;DHT22;34299;50.820;4.548;2023-09-19T02:47:42;13.70;99.90
11583;DHT22;34299;50.820;4.548;2023-09-19T02:50:11;13.90;99.90
11583;DHT22;34299;50.820;4.548;2023-09-19T02:52:38;14.00;99.90
11583;DHT22;34299;50.820;4.548;2023-09-19T02:55:05;14.00;99.90
11583;DHT22;34299;50.820;4.548;2023-09-19T02:57:34;13.90;99.90
11583;DHT22;34299;50.820;4.548;2023-09-19T03:00:02;13.90;99.90
11583;DHT22;34299;50.820;4.548;2023-09-19T03:02:30;14.00;99.90
11583;DHT22;34299;50.820;4.548;2023-09-19T03:04:58;14.00;99.90
11583;DHT22;34299;50.820;4.548;2023-09-19T03:07:27;14.20;99.90
11583;DHT22;34299;50.820;4.548;2023-09-19T03:09:55;14.20;99.90
11583;DHT22;34299;50.820;4.548;2023-09-19T03:12:22;14.00;99.90
11583;DHT22;34299;50.820;4.548;2023-09-19T03:14:48;14.10;99.90
11583;DHT22;34299;50.820;4.548;2023-09-19T03:17:16;14.00;99.90
11583;DHT22;34299;50.820;4.548;2023-09-19T03:19:45;14.00;99.90
11583;DHT22;34299;50.820;4.548;2023-09-19T03:22:13;14.00;99.90
11583;DHT22;34299;50.820;4.548;2023-09-19T03:24:41;14.20;99.90
11583;DHT22;34299;50.820;4.548;2023-09-19T03:27:09;14.00;99.90
11583;DHT22;34299;50.820;4.548;2023-09-19T03:29:36;14.00;99.90
11583;DHT22;34299;50.820;4.548;2023-09-19T03:32:05;14.00;99.90
11583;DHT22;34299;50.820;4.548;2023-09-19T03:34:32;14.00;99.90
11583;DHT22;34299;50.820;4.548;2023-09-19T03:36:59;14.00;99.90
11583;DHT22;34299;50.820;4.548;2023-09-19T03:39:26;13.90;99.90
11583;DHT22;34299;50.820;4.548;2023-09-19T03:41:54;13.90;99.90
11583;DHT22;34299;50.820;4.548;2023-09-19T03:44:21;14.00;99.90
11583;DHT22;34299;50.820;4.548;2023-09-19T03:46:48;14.20;99.90
11583;DHT22;34299;50.820;4.548;2023-09-19T03:49:15;14.00;99.90
11583;DHT22;34299;50.820;4.548;2023-09-19T03:51:42;13.80;99.90
11583;DHT22;34299;50.820;4.548;2023-09-19T03:54:09;13.70;99.90
11583;DHT22;34299;50.820;4.548;2023-09-19T03:56:36;13.50;99.90
11583;DHT22;34299;50.820;4.548;2023-09-19T03:59:04;13.40;99.90
11583;DHT22;34299;50.820;4.548;2023-09-19T04:01:31;13.30;99.90
11583;DHT22;34299;50.820;4.548;2023-09-19T04:03:59;13.30;99.90
11583;DHT22;34299;50.820;4.548;2023-09-19T04:06:33;13.20;99.90
11583;DHT22;34299;50.820;4.548;2023-09-19T04:09:00;13.10;99.90
11583;DHT22;34299;50.820;4.548;2023-09-19T04:11:32;13.20;99.90
11583;DHT22;34299;50.820;4.548;2023-09-19T04:13:59;13.20;99.90
11583;DHT22;34299;50.820;4.548;2023-09-19T04:16:27;13.20;99.90
11583;DHT22;34299;50.820;4.548;2023-09-19T04:18:54;13.20;99.90
11583;DHT22;34299;50.820;4.548;2023-09-19T04:21:21;13.30;99.90
11583;DHT22;34299;50.820;4.548;2023-09-19T04:23:50;13.30;99.90
11583;DHT22;34299;50.820;4.548;2023-09-19T04:26:17;13.10;99.90
11583;DHT22;34299;50.820;4.548;2023-09-19T04:28:44;13.50;99.90
11583;DHT22;34299;50.820;4.548;2023-09-19T04:31:11;13.50;99.90
11583;DHT22;34299;50.820;4.548;2023-09-19T04:33:44;13.40;99.90
11583;DHT22;34299;50.820;4.548;2023-09-19T04:36:11;13.50;99.90
11583;DHT22;34299;50.820;4.548;2023-09-19T04:38:38;13.50;99.90
11583;DHT22;34299;50.820;4.548;2023-09-19T04:41:05;13.60;99.90
11583;DHT22;34299;50.820;4.548;2023-09-19T04:43:32;13.60;99.90
11583;DHT22;34299;50.820;4.548;2023-09-19T04:45:59;13.50;99.90
11583;DHT22;34299;50.820;4.548;2023-09-19T04:48:26;13.40;99.90
11583;DHT22;34299;50.820;4.548;2023-09-19T04:50:56;13.40;99.90
11583;DHT22;34299;50.820;4.548;2023-09-19T04:53:22;13.50;99.90
11583;DHT22;34299;50.820;4.548;2023-09-19T04:55:50;13.50;99.90
11583;DHT22;34299;50.820;4.548;2023-09-19T04:58:21;13.70;99.90
11583;DHT22;34299;50.820;4.548;2023-09-19T05:00:48;13.40;99.90
11583;DHT22;34299;50.820;4.548;2023-09-19T05:03:17;13.40;99.90
11583;DHT22;34299;50.820;4.548;2023-09-19T05:05:46;13.40;99.90
11583;DHT22;34299;50.820;4.548;2023-09-19T05:08:14;13.40;99.90
11583;DHT22;34299;50.820;4.548;2023-09-19T05:10:41;13.30;99.90
11583;DHT22;34299;50.820;4.548;2023-09-19T05:13:08;13.40;99.90
11583;DHT22;34299;50.820;4.548;2023-09-19T05:15:35;13.40;99.90
11583;DHT22;34299;50.820;4.548;2023-09-19T05:18:03;13.30;99.90
11583;DHT22;34299;50.820;4.548;2023-09-19T05:20:31;13.30;99.90
11583;DHT22;34299;50.820;4.548;2023-09-19T05:23:01;13.30;99.90
11583;DHT22;34299;50.820;4.548;2023-09-19T05:25:31;13.40;99.90
11583;DHT22;34299;50.820;4.548;2023-09-19T05:28:02;13.30;99.90
11583;DHT22;34299;50.820;4.548;2023-09-19T05:30:31;13.40;99.90
11583;DHT22;34299;50.820;4.548;2023-09-19T05:32:58;13.40;99.90
11583;DHT22;34299;50.820;4.548;2023-09-19T05:35:25;13.40;99.90
11583;DHT22;34299;50.820;4.548;2023-09-19T05:37:54;13.30;99.90
11583;DHT22;34299;50.820;4.548;2023-09-19T05:40:22;13.20;99.90
11583;DHT22;34299;50.820;4.548;2023-09-19T05:42:50;13.30;99.90
11583;DHT22;34299;50.820;4.548;2023-09-19T05:45:18;13.30;99.90
11583;DHT22;34299;50.820;4.548;2023-09-19T05:47:48;13.20;99.90
11583;DHT22;34299;50.820;4.548;2023-09-19T05:50:16;13.30;99.90
11583;DHT22;34299;50.820;4.548;2023-09-19T05:52:51;13.30;99.90
11583;DHT22;34299;50.820;4.548;2023-09-19T05:55:18;13.30;99.90
11583;DHT22;34299;50.820;4.548;2023-09-19T05:57:51;13.30;99.90
11583;DHT22;34299;50.820;4.548;2023-09-19T06:00:18;13.30;99.90
11583;DHT22;34299;50.820;4.548;2023-09-19T06:02:50;13.30;99.90
11583;DHT22;34299;50.820;4.548;2023-09-19T06:05:17;13.30;99.90
11583;DHT22;34299;50.820;4.548;2023-09-19T06:07:44;13.40;99.90
11583;DHT22;34299;50.820;4.548;2023-09-19T06:10:12;13.40;99.90
11583;DHT22;34299;50.820;4.548;2023-09-19T06:12:40;13.40;99.90
11583;DHT22;34299;50.820;4.548;2023-09-19T06:15:11;13.60;99.90
11583;DHT22;34299;50.820;4.548;2023-09-19T06:17:41;13.60;99.90
11583;DHT22;34299;50.820;4.548;2023-09-19T06:20:08;13.60;99.90
11583;DHT22;34299;50.820;4.548;2023-09-19T06:22:38;13.70;99.90
11583;DHT22;34299;50.820;4.548;2023-09-19T06:25:07;13.70;99.90
11583;DHT22;34299;50.820;4.548;2023-09-19T06:27:37;13.90;99.90
11583;DHT22;34299;50.820;4.548;2023-09-19T06:30:06;13.70;99.90
11583;DHT22;34299;50.820;4.548;2023-09-19T06:32:35;13.60;99.90
11583;DHT22;34299;50.820;4.548;2023-09-19T06:35:02;13.80;99.90
11583;DHT22;34299;50.820;4.548;2023-09-19T06:37:28;13.70;99.90
11583;DHT22;34299;50.820;4.548;2023-09-19T06:39:55;13.70;99.90
11583;DHT22;34299;50.820;4.548;2023-09-19T06:42:23;13.80;99.90
11583;DHT22;34299;50.820;4.548;2023-09-19T06:44:50;13.80;99.90
11583;DHT22;34299;50.820;4.548;2023-09-19T06:47:17;13.70;99.90
11583;DHT22;34299;50.820;4.548;2023-09-19T06:49:45;13.80;99.90
11583;DHT22;34299;50.820;4.548;2023-09-19T06:52:12;13.90;99.90
11583;DHT22;34299;50.820;4.548;2023-09-19T06:54:40;13.90;99.90
11583;DHT22;34299;50.820;4.548;2023-09-19T06:57:07;13.90;99.90
11583;DHT22;34299;50.820;4.548;2023-09-19T06:59:35;14.10;99.90
11583;DHT22;34299;50.820;4.548;2023-09-19T07:02:03;13.90;99.90
11583;DHT22;34299;50.820;4.548;2023-09-19T07:04:31;13.90;99.90
11583;DHT22;34299;50.820;4.548;2023-09-19T07:07:00;14.00;99.90
11583;DHT22;34299;50.820;4.548;2023-09-19T07:09:27;13.70;99.90
11583;DHT22;34299;50.820;4.548;2023-09-19T07:11:54;14.10;99.90
11583;DHT22;34299;50.820;4.548;2023-09-19T07:14:21;14.00;99.90
11583;DHT22;34299;50.820;4.548;2023-09-19T07:16:48;14.10;99.90
11583;DHT22;34299;50.820;4.548;2023-09-19T07:19:16;14.10;99.90
11583;DHT22;34299;50.820;4.548;2023-09-19T07:21:43;14.30;99.90
11583;DHT22;34299;50.820;4.548;2023-09-19T07:24:14;14.10;99.90
11583;DHT22;34299;50.820;4.548;2023-09-19T07:26:41;14.30;99.90
11583;DHT22;34299;50.820;4.548;2023-09-19T07:29:08;14.20;99.90
11583;DHT22;34299;50.820;4.548;2023-09-19T07:31:35;14.20;99.90
11583;DHT22;34299;50.820;4.548;2023-09-19T07:34:02;14.30;99.90
11583;DHT22;34299;50.820;4.548;2023-09-19T07:36:30;14.40;99.90
11583;DHT22;34299;50.820;4.548;2023-09-19T07:38:58;14.40;99.90
11583;DHT22;34299;50.820;4.548;2023-09-19T07:41:27;14.40;99.90
11583;DHT22;34299;50.820;4.548;2023-09-19T07:43:56;14.40;99.90
11583;DHT22;34299;50.820;4.548;2023-09-19T07:46:22;14.40;99.90
11583;DHT22;34299;50.820;4.548;2023-09-19T07:48:50;14.70;99.90
11583;DHT22;34299;50.820;4.548;2023-09-19T07:51:17;14.70;99.90
11583;DHT22;34299;50.820;4.548;2023-09-19T07:53:44;14.70;99.90
11583;DHT22;34299;50.820;4.548;2023-09-19T07:56:11;14.70;99.90
11583;DHT22;34299;50.820;4.548;2023-09-19T07:58:40;14.90;99.90
11583;DHT22;34299;50.820;4.548;2023-09-19T08:01:09;14.90;99.90
11583;DHT22;34299;50.820;4.548;2023-09-19T08:03:37;15.00;99.90
11583;DHT22;34299;50.820;4.548;2023-09-19T08:06:07;14.90;99.90
11583;DHT22;34299;50.820;4.548;2023-09-19T08:08:34;15.00;99.90
11583;DHT22;34299;50.820;4.548;2023-09-19T08:11:03;14.90;99.90
11583;DHT22;34299;50.820;4.548;2023-09-19T08:13:36;15.00;99.90
11583;DHT22;34299;50.820;4.548;2023-09-19T08:16:05;15.00;99.90
11583;DHT22;34299;50.820;4.548;2023-09-19T08:18:32;15.40;99.90
11583;DHT22;34299;50.820;4.548;2023-09-19T08:20:59;15.20;99.90
11583;DHT22;34299;50.820;4.548;2023-09-19T08:23:27;15.30;99.90
11583;DHT22;34299;50.820;4.548;2023-09-19T08:25:56;15.40;99.90
11583;DHT22;34299;50.820;4.548;2023-09-19T08:28:23;15.40;99.90
11583;DHT22;34299;50.820;4.548;2023-09-19T08:30:50;15.70;99.90
11583;DHT22;34299;50.820;4.548;2023-09-19T08:33:20;15.70;99.90
11583;DHT22;34299;50.820;4.548;2023-09-19T08:35:47;15.80;99.90
11583;DHT22;34299;50.820;4.548;2023-09-19T08:38:14;15.60;99.90
11583;DHT22;34299;50.820;4.548;2023-09-19T08:40:41;15.60;99.90
11583;DHT22;34299;50.820;4.548;2023-09-19T08:43:09;15.80;99.90
11583;DHT22;34299;50.820;4.548;2023-09-19T08:45:36;16.20;99.90
11583;DHT22;34299;50.820;4.548;2023-09-19T08:48:22;16.10;99.90
11583;DHT22;34299;50.820;4.548;2023-09-19T08:50:52;16.20;99.90
11583;DHT22;34299;50.820;4.548;2023-09-19T08:53:26;16.00;99.90
11583;DHT22;34299;50.820;4.548;2023-09-19T08:55:55;16.00;99.90
11583;DHT22;34299;50.820;4.548;2023-09-19T08:58:26;16.20;99.90
11583;DHT22;34299;50.820;4.548;2023-09-19T09:00:56;16.20;99.90
11583;DHT22;34299;50.820;4.548;2023-09-19T09:03:32;16.20;99.90
11583;DHT22;34299;50.820;4.548;2023-09-19T09:05:59;16.40;99.90
11583;DHT22;34299;50.820;4.548;2023-09-19T09:08:28;16.60;99.90
11583;DHT22;34299;50.820;4.548;2023-09-19T09:10:57;16.60;99.90
11583;DHT22;34299;50.820;4.548;2023-09-19T09:13:25;16.50;99.90
11583;DHT22;34299;50.820;4.548;2023-09-19T09:15:53;16.60;99.90
11583;DHT22;34299;50.820;4.548;2023-09-19T09:18:20;16.80;99.90
11583;DHT22;34299;50.820;4.548;2023-09-19T09:20:49;16.70;99.90
11583;DHT22;34299;50.820;4.548;2023-09-19T09:23:16;16.80;99.90
11583;DHT22;34299;50.820;4.548;2023-09-19T09:25:53;17.10;99.90
11583;DHT22;34299;50.820;4.548;2023-09-19T09:28:23;17.20;99.90
11583;DHT22;34299;50.820;4.548;2023-09-19T09:30:51;17.30;99.90
11583;DHT22;34299;50.820;4.548;2023-09-19T09:33:18;17.00;99.90
11583;DHT22;34299;50.820;4.548;2023-09-19T09:35:53;17.10;99.90
11583;DHT22;34299;50.820;4.548;2023-09-19T09:38:23;16.90;99.90
11583;DHT22;34299;50.820;4.548;2023-09-19T09:40:54;16.80;99.90
11583;DHT22;34299;50.820;4.548;2023-09-19T09:43:27;16.80;99.90
11583;DHT22;34299;50.820;4.548;2023-09-19T09:46:10;16.90;99.90
11583;DHT22;34299;50.820;4.548;2023-09-19T09:49:04;17.10;99.90
11583;DHT22;34299;50.820;4.548;2023-09-19T09:51:47;17.40;99.90
11583;DHT22;34299;50.820;4.548;2023-09-19T09:54:23;17.10;99.90
11583;DHT22;34299;50.820;4.548;2023-09-19T09:56:57;16.90;99.90
11583;DHT22;34299;50.820;4.548;2023-09-19T09:59:49;17.30;99.90
11583;DHT22;34299;50.820;4.548;2023-09-19T10:02:25;17.20;99.90
11583;DHT22;34299;50.820;4.548;2023-09-19T10:04:55;17.00;99.90
11583;DHT22;34299;50.820;4.548;2023-09-19T10:07:41;17.10;99.90
11583;DHT22;34299;50.820;4.548;2023-09-19T10:10:15;17.50;99.90
11583;DHT22;34299;50.820;4.548;2023-09-19T10:12:46;17.30;99.90
11583;DHT22;34299;50.820;4.548;2023-09-19T10:15:15;17.40;99.90
11583;DHT22;34299;50.820;4.548;2023-09-19T10:17:44;17.50;99.90
11583;DHT22;34299;50.820;4.548;2023-09-19T10:20:15;17.60;99.90
11583;DHT22;34299;50.820;4.548;2023-09-19T10:22:51;17.40;99.90
11583;DHT22;34299;50.820;4.548;2023-09-19T10:25:27;17.60;99.90
11583;DHT22;34299;50.820;4.548;2023-09-19T10:27:56;17.70;99.90
11583;DHT22;34299;50.820;4.548;2023-09-19T10:30:25;17.90;99.90
11583;DHT22;34299;50.820;4.548;2023-09-19T10:33:00;18.40;99.90
11583;DHT22;34299;50.820;4.548;2023-09-19T10:35:27;18.20;99.90
11583;DHT22;34299;50.820;4.548;2023-09-19T10:37:59;18.50;99.90
11583;DHT22;34299;50.820;4.548;2023-09-19T10:40:27;18.10;99.90
11583;DHT22;34299;50.820;4.548;2023-09-19T10:43:01;18.20;99.90
11583;DHT22;34299;50.820;4.548;2023-09-19T10:45:31;18.80;99.90
11583;DHT22;34299;50.820;4.548;2023-09-19T10:47:58;19.10;99.90
11583;DHT22;34299;50.820;4.548;2023-09-19T10:50:27;18.70;99.90
11583;DHT22;34299;50.820;4.548;2023-09-19T10:53:00;18.70;99.90
11583;DHT22;34299;50.820;4.548;2023-09-19T10:55:31;19.00;99.90
11583;DHT22;34299;50.820;4.548;2023-09-19T10:57:59;18.20;99.90
11583;DHT22;34299;50.820;4.548;2023-09-19T11:00:30;18.80;99.90
11583;DHT22;34299;50.820;4.548;2023-09-19T11:03:21;19.30;99.90
11583;DHT22;34299;50.820;4.548;2023-09-19T11:06:03;20.00;99.90
11583;DHT22;34299;50.820;4.548;2023-09-19T11:08:57;19.50;99.90
11583;DHT22;34299;50.820;4.548;2023-09-19T11:11:40;19.50;99.90
11583;DHT22;34299;50.820;4.548;2023-09-19T11:14:14;19.30;99.90
11583;DHT22;34299;50.820;4.548;2023-09-19T11:20:23;19.60;99.90
11583;DHT22;34299;50.820;4.548;2023-09-19T11:23:20;19.10;99.90
11583;DHT22;34299;50.820;4.548;2023-09-19T11:25:54;19.70;99.90
11583;DHT22;34299;50.820;4.548;2023-09-19T11:28:38;20.00;99.90
11583;DHT22;34299;50.820;4.548;2023-09-19T11:34:42;19.30;99.90
11583;DHT22;34299;50.820;4.548;2023-09-19T11:40:33;20.20;99.90
11583;DHT22;34299;50.820;4.548;2023-09-19T11:43:28;19.30;99.90
11583;DHT22;34299;50.820;4.548;2023-09-19T11:46:06;20.00;99.90
11583;DHT22;34299;50.820;4.548;2023-09-19T11:48:35;19.50;99.90
11583;DHT22;34299;50.820;4.548;2023-09-19T11:51:17;19.40;99.90
11583;DHT22;34299;50.820;4.548;2023-09-19T11:53:54;19.60;99.90
11583;DHT22;34299;50.820;4.548;2023-09-19T11:56:22;19.30;99.90
11583;DHT22;34299;50.820;4.548;2023-09-19T11:58:52;19.80;99.90
11583;DHT22;34299;50.820;4.548;2023-09-19T12:01:25;20.50;99.90
11583;DHT22;34299;50.820;4.548;2023-09-19T12:03:56;19.50;99.90
11583;DHT22;34299;50.820;4.548;2023-09-19T12:06:24;19.50;99.90
11583;DHT22;34299;50.820;4.548;2023-09-19T12:08:51;19.70;99.90
11583;DHT22;34299;50.820;4.548;2023-09-19T12:11:20;19.70;99.90
11583;DHT22;34299;50.820;4.548;2023-09-19T12:13:49;19.40;99.90
11583;DHT22;34299;50.820;4.548;2023-09-19T12:16:19;19.40;99.90
11583;DHT22;34299;50.820;4.548;2023-09-19T12:18:48;19.00;99.90
11583;DHT22;34299;50.820;4.548;2023-09-19T12:21:26;19.20;99.90
11583;DHT22;34299;50.820;4.548;2023-09-19T12:23:58;18.90;99.90
11583;DHT22;34299;50.820;4.548;2023-09-19T12:26:26;18.50;99.90
11583;DHT22;34299;50.820;4.548;2023-09-19T12:28:54;18.60;99.90
11583;DHT22;34299;50.820;4.548;2023-09-19T12:31:23;18.60;99.90
11583;DHT22;34299;50.820;4.548;2023-09-19T12:33:55;18.40;99.90
11583;DHT22;34299;50.820;4.548;2023-09-19T12:36:23;18.70;99.90
11583;DHT22;34299;50.820;4.548;2023-09-19T12:38:55;18.50;99.90
11583;DHT22;34299;50.820;4.548;2023-09-19T12:41:25;18.70;99.90
11583;DHT22;34299;50.820;4.548;2023-09-19T12:43:52;19.10;99.90
11583;DHT22;34299;50.820;4.548;2023-09-19T12:46:20;19.70;99.90
11583;DHT22;34299;50.820;4.548;2023-09-19T12:49:15;19.20;99.90
11583;DHT22;34299;50.820;4.548;2023-09-19T12:51:43;19.20;99.90
11583;DHT22;34299;50.820;4.548;2023-09-19T12:54:10;20.60;99.90
11583;DHT22;34299;50.820;4.548;2023-09-19T12:56:40;21.20;99.90
11583;DHT22;34299;50.820;4.548;2023-09-19T12:59:12;20.90;99.90
11583;DHT22;34299;50.820;4.548;2023-09-19T13:01:39;21.10;99.90
11583;DHT22;34299;50.820;4.548;2023-09-19T13:04:13;20.40;99.90
11583;DHT22;34299;50.820;4.548;2023-09-19T13:06:44;20.00;99.90
11583;DHT22;34299;50.820;4.548;2023-09-19T13:09:12;19.60;99.90
11583;DHT22;34299;50.820;4.548;2023-09-19T13:11:40;19.20;99.90
11583;DHT22;34299;50.820;4.548;2023-09-19T13:14:15;19.10;99.90
11583;DHT22;34299;50.820;4.548;2023-09-19T13:16:56;19.60;99.90
11583;DHT22;34299;50.820;4.548;2023-09-19T13:19:38;19.70;99.90
11583;DHT22;34299;50.820;4.548;2023-09-19T13:22:39;19.50;99.90
11583;DHT22;34299;50.820;4.548;2023-09-19T13:25:08;18.80;99.90
11583;DHT22;34299;50.820;4.548;2023-09-19T13:27:40;19.20;99.90
11583;DHT22;34299;50.820;4.548;2023-09-19T13:30:08;19.20;99.90
11583;DHT22;34299;50.820;4.548;2023-09-19T13:32:35;18.90;99.90
11583;DHT22;34299;50.820;4.548;2023-09-19T13:35:07;18.80;99.90
11583;DHT22;34299;50.820;4.548;2023-09-19T13:37:35;18.90;99.90
11583;DHT22;34299;50.820;4.548;2023-09-19T13:40:07;19.50;99.90
11583;DHT22;34299;50.820;4.548;2023-09-19T13:42:34;19.10;99.90
11583;DHT22;34299;50.820;4.548;2023-09-19T13:45:02;19.00;99.90
11583;DHT22;34299;50.820;4.548;2023-09-19T13:47:30;19.20;99.90
11583;DHT22;34299;50.820;4.548;2023-09-19T13:49:58;19.20;99.90
11583;DHT22;34299;50.820;4.548;2023-09-19T13:52:28;18.80;99.90
11583;DHT22;34299;50.820;4.548;2023-09-19T13:54:56;18.80;99.90
11583;DHT22;34299;50.820;4.548;2023-09-19T13:57:23;18.60;99.90
11583;DHT22;34299;50.820;4.548;2023-09-19T13:59:51;18.80;99.90
11583;DHT22;34299;50.820;4.548;2023-09-19T14:02:19;19.00;99.90
11583;DHT22;34299;50.820;4.548;2023-09-19T14:04:48;19.10;99.90
11583;DHT22;34299;50.820;4.548;2023-09-19T14:07:15;19.00;99.90
11583;DHT22;34299;50.820;4.548;2023-09-19T14:09:45;18.70;99.90
11583;DHT22;34299;50.820;4.548;2023-09-19T14:12:13;18.90;99.90
11583;DHT22;34299;50.820;4.548;2023-09-19T14:14:40;19.00;99.90
11583;DHT22;34299;50.820;4.548;2023-09-19T14:17:07;18.80;99.90
11583;DHT22;34299;50.820;4.548;2023-09-19T14:19:34;18.90;99.90
11583;DHT22;34299;50.820;4.548;2023-09-19T14:22:02;18.70;99.90
11583;DHT22;34299;50.820;4.548;2023-09-19T14:24:33;18.60;99.90
11583;DHT22;34299;50.820;4.548;2023-09-19T14:27:01;18.90;99.90
11583;DHT22;34299;50.820;4.548;2023-09-19T14:29:30;18.80;99.90
11583;DHT22;34299;50.820;4.548;2023-09-19T14:31:56;19.10;99.90
11583;DHT22;34299;50.820;4.548;2023-09-19T14:34:24;19.10;99.90
11583;DHT22;34299;50.820;4.548;2023-09-19T14:36:50;19.50;99.90
11583;DHT22;34299;50.820;4.548;2023-09-19T14:39:17;20.00;99.90
11583;DHT22;34299;50.820;4.548;2023-09-19T14:41:45;20.60;99.90
11583;DHT22;34299;50.820;4.548;2023-09-19T14:44:13;20.20;99.90
11583;DHT22;34299;50.820;4.548;2023-09-19T14:46:41;20.10;99.90
11583;DHT22;34299;50.820;4.548;2023-09-19T14:49:09;19.70;99.90
11583;DHT22;34299;50.820;4.548;2023-09-19T14:51:37;20.50;99.90
11583;DHT22;34299;50.820;4.548;2023-09-19T14:54:06;21.10;99.90
11583;DHT22;34299;50.820;4.548;2023-09-19T14:56:34;21.10;99.90
11583;DHT22;34299;50.820;4.548;2023-09-19T14:59:01;20.90;99.90
11583;DHT22;34299;50.820;4.548;2023-09-19T15:01:29;20.00;99.90
11583;DHT22;34299;50.820;4.548;2023-09-19T15:03:57;20.90;99.90
11583;DHT22;34299;50.820;4.548;2023-09-19T15:06:26;20.90;99.90
11583;DHT22;34299;50.820;4.548;2023-09-19T15:08:53;20.90;99.90
11583;DHT22;34299;50.820;4.548;2023-09-19T15:11:20;20.10;99.90
11583;DHT22;34299;50.820;4.548;2023-09-19T15:13:50;19.50;99.90
11583;DHT22;34299;50.820;4.548;2023-09-19T15:16:17;19.40;99.90
11583;DHT22;34299;50.820;4.548;2023-09-19T15:18:46;19.80;99.90
11583;DHT22;34299;50.820;4.548;2023-09-19T15:21:14;19.50;99.90
11583;DHT22;34299;50.820;4.548;2023-09-19T15:23:42;19.20;99.90
11583;DHT22;34299;50.820;4.548;2023-09-19T15:26:12;19.20;99.90
11583;DHT22;34299;50.820;4.548;2023-09-19T15:28:40;18.90;99.90
11583;DHT22;34299;50.820;4.548;2023-09-19T15:31:09;18.90;99.90
11583;DHT22;34299;50.820;4.548;2023-09-19T15:33:37;18.80;99.90
11583;DHT22;34299;50.820;4.548;2023-09-19T15:36:07;18.60;99.90
11583;DHT22;34299;50.820;4.548;2023-09-19T15:38:55;19.00;99.90
11583;DHT22;34299;50.820;4.548;2023-09-19T15:41:24;19.00;99.90
11583;DHT22;34299;50.820;4.548;2023-09-19T15:43:52;18.70;99.90
11583;DHT22;34299;50.820;4.548;2023-09-19T15:46:19;18.70;99.90
11583;DHT22;34299;50.820;4.548;2023-09-19T15:48:46;18.70;99.90
11583;DHT22;34299;50.820;4.548;2023-09-19T15:51:14;18.40;99.90
11583;DHT22;34299;50.820;4.548;2023-09-19T15:53:43;18.50;99.90
11583;DHT22;34299;50.820;4.548;2023-09-19T15:56:10;18.60;99.90
11583;DHT22;34299;50.820;4.548;2023-09-19T15:58:39;18.70;99.90